createdAt,value
2018-03-19T00:01:23.991Z,60.90
2018-03-19T00:03:53.152Z,60.80
2018-03-19T00:06:21.535Z,60.80
2018-03-19T00:08:50.720Z,61.20
2018-03-19T00:11:19.104Z,61.20
2018-03-19T00:13:47.480Z,61.10
2018-03-19T00:16:16.062Z,61.70
2018-03-19T00:18:44.498Z,61.40
2018-03-19T00:21:12.876Z,61.20
2018-03-19T00:23:41.277Z,61.00
2018-03-19T00:26:09.658Z,61.40
2018-03-19T00:28:38.037Z,61.10
2018-03-19T00:31:06.442Z,61.50
2018-03-19T00:33:34.825Z,61.80
2018-03-19T00:36:04.030Z,61.10
2018-03-19T00:38:32.442Z,61.00
2018-03-19T00:41:00.822Z,61.70
2018-03-19T00:43:29.217Z,62.20
2018-03-19T00:45:57.642Z,61.70
2018-03-19T00:48:26.018Z,62.20
2018-03-19T00:50:54.589Z,61.90
2018-03-19T00:53:22.997Z,61.90
2018-03-19T00:55:52.130Z,61.80
2018-03-19T00:58:20.508Z,61.80
2018-03-19T01:00:48.924Z,61.70
2018-03-19T01:03:17.309Z,61.60
2018-03-19T01:05:45.687Z,61.30
2018-03-19T01:08:14.118Z,61.40
2018-03-19T01:10:42.504Z,61.30
2018-03-19T01:13:10.876Z,61.20
2018-03-19T01:15:39.286Z,61.40
2018-03-19T01:18:07.663Z,61.70
2018-03-19T01:20:36.043Z,61.00
2018-03-19T01:23:04.461Z,61.00
2018-03-19T01:25:33.601Z,62.50
2018-03-19T01:28:01.974Z,62.50
2018-03-19T01:30:30.382Z,62.50
2018-03-19T01:32:58.757Z,62.40
2018-03-19T01:35:27.134Z,62.70
2018-03-19T01:37:55.541Z,62.80
2018-03-19T01:40:24.697Z,63.00
2018-03-19T01:42:53.082Z,63.00
2018-03-19T01:45:21.505Z,62.80
2018-03-19T01:47:50.652Z,63.50
2018-03-19T01:50:19.190Z,63.50
2018-03-19T01:52:50.131Z,63.30
2018-03-19T01:55:18.509Z,63.20
2018-03-19T01:57:47.664Z,63.20
2018-03-19T02:00:16.070Z,63.20
2018-03-19T02:02:45.230Z,62.90
2018-03-19T02:05:13.617Z,62.90
2018-03-19T02:07:42.293Z,62.70
2018-03-19T02:10:10.675Z,62.70
2018-03-19T02:12:39.885Z,62.80
2018-03-19T02:15:09.078Z,62.90
2018-03-19T02:17:37.458Z,63.00
2018-03-19T02:20:05.831Z,62.90
2018-03-19T02:22:34.234Z,62.90
2018-03-19T02:25:02.617Z,63.10
2018-03-19T02:27:31.758Z,63.50
2018-03-19T02:30:00.190Z,63.50
2018-03-19T02:32:28.569Z,63.50
2018-03-19T02:34:56.955Z,63.60
2018-03-19T02:37:26.136Z,64.10
2018-03-19T02:39:54.517Z,63.90
2018-03-19T02:42:22.908Z,64.40
2018-03-19T02:44:52.093Z,65.10
2018-03-19T02:47:20.471Z,65.10
2018-03-19T02:49:48.865Z,65.30
2018-03-19T02:52:18.068Z,65.50
2018-03-19T02:54:46.462Z,65.50
2018-03-19T02:57:14.849Z,65.50
2018-03-19T02:59:43.258Z,66.00
2018-03-19T03:02:11.635Z,65.60
2018-03-19T03:04:40.010Z,65.90
2018-03-19T03:07:08.464Z,66.80
2018-03-19T03:09:36.841Z,66.30
2018-03-19T03:12:05.220Z,65.80
2018-03-19T03:14:33.659Z,66.00
2018-03-19T03:17:02.078Z,65.80
2018-03-19T03:19:31.201Z,65.70
2018-03-19T03:21:59.613Z,65.70
2018-03-19T03:24:27.988Z,65.90
2018-03-19T03:26:56.367Z,65.80
2018-03-19T03:29:24.783Z,66.20
2018-03-19T03:31:53.155Z,66.20
2018-03-19T03:34:21.536Z,66.10
2018-03-19T03:36:50.142Z,66.50
2018-03-19T03:39:18.539Z,66.70
2018-03-19T03:41:46.914Z,66.60
2018-03-19T03:44:15.327Z,66.50
2018-03-19T03:46:43.707Z,65.80
2018-03-19T03:49:12.082Z,65.20
2018-03-19T03:51:40.501Z,62.80
2018-03-19T03:54:08.883Z,63.00
2018-03-19T03:56:37.270Z,64.00
2018-03-19T03:59:06.062Z,64.00
2018-03-19T04:01:34.435Z,64.10
2018-03-19T04:04:02.875Z,63.70
2018-03-19T04:06:31.265Z,62.90
2018-03-19T04:09:00.449Z,62.40
2018-03-19T04:11:29.596Z,63.00
2018-03-19T04:13:58.065Z,63.00
2018-03-19T04:16:26.442Z,63.50
2018-03-19T04:18:54.817Z,63.30
2018-03-19T04:21:23.247Z,63.70
2018-03-19T04:23:51.660Z,64.20
2018-03-19T04:26:20.029Z,64.10
2018-03-19T04:28:49.221Z,64.00
2018-03-19T04:31:18.351Z,64.40
2018-03-19T04:33:46.734Z,64.30
2018-03-19T04:36:15.142Z,63.90
2018-03-19T04:38:43.518Z,63.90
2018-03-19T04:41:11.898Z,63.40
2018-03-19T04:43:40.328Z,63.20
2018-03-19T04:46:08.715Z,63.10
2018-03-19T04:48:37.097Z,62.70
2018-03-19T04:51:06.271Z,62.10
2018-03-19T04:53:35.413Z,62.50
2018-03-19T04:56:03.794Z,62.40
2018-03-19T04:58:32.214Z,62.70
2018-03-19T05:01:00.596Z,63.10
2018-03-19T05:03:29.738Z,63.30
2018-03-19T05:05:58.158Z,63.20
2018-03-19T05:08:26.553Z,63.40
2018-03-19T05:10:55.702Z,65.20
2018-03-19T05:13:24.278Z,65.10
2018-03-19T05:15:52.654Z,65.80
2018-03-19T05:18:21.054Z,66.30
2018-03-19T05:20:49.465Z,66.50
2018-03-19T05:23:18.611Z,66.60
2018-03-19T05:25:46.992Z,66.60
2018-03-19T05:28:15.432Z,67.20
2018-03-19T05:30:44.576Z,67.50
2018-03-19T05:33:13.006Z,66.80
2018-03-19T05:35:41.385Z,66.80
2018-03-19T05:38:10.540Z,66.20
2018-03-19T05:40:38.910Z,66.20
2018-03-19T05:43:07.315Z,66.60
2018-03-19T05:45:35.686Z,66.80
2018-03-19T05:48:04.089Z,66.80
2018-03-19T05:50:33.278Z,66.10
2018-03-19T05:53:01.664Z,66.10
2018-03-19T05:55:30.802Z,66.00
2018-03-19T05:57:59.251Z,66.00
2018-03-19T06:00:28.402Z,65.80
2018-03-19T06:02:56.790Z,65.80
2018-03-19T06:05:25.210Z,66.30
2018-03-19T06:07:53.588Z,65.30
2018-03-19T06:10:21.977Z,65.20
2018-03-19T06:12:50.398Z,64.90
2018-03-19T06:15:18.784Z,65.20
2018-03-19T06:17:47.162Z,64.70
2018-03-19T06:20:15.568Z,64.60
2018-03-19T06:22:44.714Z,64.00
2018-03-19T06:25:13.090Z,64.00
2018-03-19T06:27:41.490Z,64.20
2018-03-19T06:30:09.874Z,63.90
2018-03-19T06:32:38.252Z,63.50
2018-03-19T06:35:07.014Z,62.90
2018-03-19T06:37:35.499Z,63.30
2018-03-19T06:40:03.904Z,63.30
2018-03-19T06:42:32.306Z,63.20
2018-03-19T06:45:01.450Z,63.10
2018-03-19T06:47:29.850Z,63.10
2018-03-19T06:49:58.277Z,63.10
2018-03-19T06:52:26.653Z,63.00
2018-03-19T06:54:55.033Z,62.80
2018-03-19T06:57:23.641Z,62.80
2018-03-19T06:59:52.026Z,62.00
2018-03-19T07:02:20.415Z,61.90
2018-03-19T07:04:48.842Z,62.60
2018-03-19T07:07:17.999Z,61.50
2018-03-19T07:09:46.377Z,61.40
2018-03-19T07:12:14.787Z,61.20
2018-03-19T07:14:43.938Z,61.90
2018-03-19T07:17:12.343Z,61.60
2018-03-19T07:19:40.773Z,61.70
2018-03-19T07:22:09.158Z,61.70
2018-03-19T07:24:37.534Z,61.50
2018-03-19T07:27:05.954Z,61.60
2018-03-19T07:29:34.341Z,61.10
2018-03-19T07:32:02.719Z,61.50
2018-03-19T07:34:31.169Z,61.20
2018-03-19T07:36:59.558Z,61.10
2018-03-19T07:39:27.938Z,61.30
2018-03-19T07:41:56.354Z,60.90
2018-03-19T07:44:25.499Z,60.00
2018-03-19T07:46:53.880Z,60.00
2018-03-19T07:49:22.315Z,60.40
2018-03-19T07:51:51.470Z,59.40
2018-03-19T07:54:19.847Z,59.30
2018-03-19T07:56:48.278Z,59.40
2018-03-19T07:59:16.640Z,59.10
2018-03-19T08:01:45.797Z,58.20
2018-03-19T08:04:14.208Z,58.20
2018-03-19T08:06:42.584Z,58.70
2018-03-19T08:09:11.031Z,57.90
2018-03-19T08:11:39.437Z,58.30
2018-03-19T08:14:07.818Z,57.90
2018-03-19T08:16:36.194Z,57.90
2018-03-19T08:19:04.839Z,57.90
2018-03-19T08:21:33.219Z,58.00
2018-03-19T08:24:01.599Z,57.80
2018-03-19T08:26:30.022Z,57.60
2018-03-19T08:28:58.397Z,59.10
2018-03-19T08:31:26.782Z,58.40
2018-03-19T08:33:55.192Z,58.50
2018-03-19T08:36:23.572Z,58.10
2018-03-19T08:38:51.952Z,58.90
2018-03-19T08:41:20.378Z,58.50
2018-03-19T08:43:48.758Z,57.20
2018-03-19T08:46:17.138Z,57.50
2018-03-19T08:48:45.605Z,57.30
2018-03-19T08:51:13.994Z,56.40
2018-03-19T08:53:42.368Z,56.50
2018-03-19T08:56:10.772Z,56.20
2018-03-19T08:58:39.917Z,55.20
2018-03-19T09:01:08.766Z,55.20
2018-03-19T09:03:37.951Z,55.60
2018-03-19T09:06:07.199Z,55.20
2018-03-19T09:08:35.658Z,55.20
2018-03-19T09:11:04.410Z,55.70
2018-03-19T09:13:32.787Z,56.10
2018-03-19T09:16:01.162Z,56.20
2018-03-19T09:18:29.566Z,56.90
2018-03-19T09:20:58.711Z,55.40
2018-03-19T09:23:27.097Z,55.30
2018-03-19T09:25:55.746Z,55.00
2018-03-19T09:28:24.125Z,55.50
2018-03-19T09:30:52.490Z,55.20
2018-03-19T09:33:21.672Z,55.30
2018-03-19T09:35:50.810Z,54.70
2018-03-19T09:38:19.211Z,54.70
2018-03-19T09:40:47.621Z,54.50
2018-03-19T09:43:16.465Z,54.10
2018-03-19T09:45:44.877Z,54.80
2018-03-19T09:48:13.290Z,55.20
2018-03-19T09:50:41.688Z,55.00
2018-03-19T09:53:10.090Z,55.60
2018-03-19T09:55:38.513Z,54.80
2018-03-19T09:58:07.662Z,54.70
2018-03-19T10:00:36.039Z,54.60
2018-03-19T10:03:04.445Z,54.40
2018-03-19T10:05:32.824Z,55.00
2018-03-19T10:08:01.263Z,54.90
2018-03-19T10:10:29.699Z,55.20
2018-03-19T10:12:58.098Z,55.80
2018-03-19T10:15:26.566Z,56.30
2018-03-19T10:17:55.761Z,56.70
2018-03-19T10:20:24.898Z,56.60
2018-03-19T10:22:53.284Z,56.60
2018-03-19T10:25:21.678Z,57.00
2018-03-19T10:27:50.046Z,57.20
2018-03-19T10:30:18.418Z,57.60
2018-03-19T10:32:46.847Z,57.30
2018-03-19T10:35:15.995Z,57.10
2018-03-19T10:37:44.638Z,57.10
2018-03-19T10:40:13.819Z,57.30
2018-03-19T10:42:42.186Z,57.30
2018-03-19T10:45:10.553Z,57.30
2018-03-19T10:47:38.962Z,57.50
2018-03-19T10:50:08.123Z,57.30
2018-03-19T10:52:36.506Z,57.30
2018-03-19T10:55:04.914Z,57.40
2018-03-19T10:57:33.583Z,57.60
2018-03-19T11:00:02.917Z,56.40
2018-03-19T11:02:33.224Z,56.40
2018-03-19T11:05:07.953Z,57.00
2018-03-19T11:07:42.814Z,56.60
2018-03-19T11:10:11.187Z,56.60
2018-03-19T11:12:39.567Z,56.50
2018-03-19T11:15:07.978Z,55.60
2018-03-19T11:17:36.366Z,55.30
2018-03-19T11:20:04.796Z,55.00
2018-03-19T11:22:33.976Z,54.70
2018-03-19T11:25:03.118Z,55.10
2018-03-19T11:27:31.498Z,55.00
2018-03-19T11:29:59.901Z,54.30
2018-03-19T11:32:28.289Z,55.20
2018-03-19T11:34:56.694Z,54.60
2018-03-19T11:37:25.895Z,54.70
2018-03-19T11:39:55.031Z,54.80
2018-03-19T11:42:23.406Z,54.90
2018-03-19T11:44:51.823Z,54.40
2018-03-19T11:47:20.200Z,55.00
2018-03-19T11:49:49.350Z,53.80
2018-03-19T11:52:17.777Z,53.80
2018-03-19T11:54:46.154Z,53.70
2018-03-19T11:57:14.533Z,53.90
2018-03-19T11:59:43.714Z,53.70
2018-03-19T12:02:12.086Z,53.70
2018-03-19T12:04:40.462Z,54.40
2018-03-19T12:07:08.888Z,53.20
2018-03-19T12:09:38.027Z,53.00
2018-03-19T12:12:06.410Z,53.00
2018-03-19T12:14:34.820Z,53.80
2018-03-19T12:17:03.186Z,53.20
2018-03-19T12:19:31.584Z,53.30
2018-03-19T12:21:59.985Z,53.30
2018-03-19T12:24:29.126Z,53.80
2018-03-19T12:26:57.622Z,53.80
2018-03-19T12:29:26.069Z,53.10
2018-03-19T12:31:54.440Z,55.00
2018-03-19T12:34:22.830Z,55.80
2018-03-19T12:36:51.242Z,55.30
2018-03-19T12:39:19.722Z,54.80
2018-03-19T12:41:48.107Z,55.00
2018-03-19T12:44:16.521Z,53.30
2018-03-19T12:46:45.662Z,53.10
2018-03-19T12:49:14.025Z,53.00
2018-03-19T12:51:42.436Z,52.70
2018-03-19T12:54:10.944Z,52.70
2018-03-19T12:56:40.097Z,53.30
2018-03-19T12:59:08.515Z,53.30
2018-03-19T13:01:37.654Z,53.00
2018-03-19T13:04:06.031Z,53.00
2018-03-19T13:06:34.435Z,53.00
2018-03-19T13:09:02.810Z,52.80
2018-03-19T13:11:31.189Z,53.00
2018-03-19T13:13:59.609Z,53.50
2018-03-19T13:16:28.745Z,53.30
2018-03-19T13:18:57.119Z,53.80
2018-03-19T13:21:25.513Z,53.00
2018-03-19T13:23:53.883Z,52.90
2018-03-19T13:26:22.251Z,53.00
2018-03-19T13:28:50.672Z,52.30
2018-03-19T13:31:19.042Z,52.80
2018-03-19T13:33:47.462Z,53.00
2018-03-19T13:36:16.805Z,53.80
2018-03-19T13:38:45.189Z,53.80
2018-03-19T13:41:15.386Z,52.90
2018-03-19T13:43:43.783Z,52.90
2018-03-19T13:46:12.151Z,52.90
2018-03-19T13:48:40.529Z,53.50
2018-03-19T13:51:08.926Z,53.70
2018-03-19T13:53:37.309Z,53.70
2018-03-19T13:56:05.700Z,52.90
2018-03-19T13:58:34.133Z,52.90
2018-03-19T14:01:02.512Z,53.00
2018-03-19T14:03:30.891Z,53.50
2018-03-19T14:05:59.296Z,54.20
2018-03-19T14:08:27.674Z,54.40
2018-03-19T14:10:56.047Z,53.20
2018-03-19T14:13:24.621Z,53.00
2018-03-19T14:15:52.991Z,53.00
2018-03-19T14:18:21.374Z,52.60
2018-03-19T14:20:49.796Z,54.60
2018-03-19T14:23:18.224Z,55.30
2018-03-19T14:25:46.624Z,55.70
2018-03-19T14:28:15.038Z,54.80
2018-03-19T14:30:43.412Z,54.90
2018-03-19T14:33:11.775Z,54.80
2018-03-19T14:35:40.440Z,54.30
2018-03-19T14:38:08.816Z,53.80
2018-03-19T14:40:37.193Z,53.70
2018-03-19T14:43:05.731Z,54.30
2018-03-19T14:45:34.118Z,54.50
2018-03-19T14:48:03.288Z,55.20
2018-03-19T14:50:31.735Z,55.10
2018-03-19T14:53:00.118Z,55.20
2018-03-19T14:55:28.485Z,54.50
2018-03-19T14:57:56.889Z,54.10
2018-03-19T15:00:25.258Z,54.40
2018-03-19T15:02:53.637Z,54.90
2018-03-19T15:05:22.047Z,55.70
2018-03-19T15:07:50.408Z,55.50
2018-03-19T15:10:18.781Z,55.90
2018-03-19T15:12:47.187Z,56.30
2018-03-19T15:15:16.339Z,56.40
2018-03-19T15:17:44.807Z,56.40
2018-03-19T15:20:13.196Z,56.40
2018-03-19T15:22:41.575Z,56.40
2018-03-19T15:25:09.953Z,56.70
2018-03-19T15:27:38.378Z,56.40
2018-03-19T15:30:07.531Z,56.50
2018-03-19T15:32:35.909Z,56.40
2018-03-19T15:35:04.334Z,56.80
2018-03-19T15:37:33.490Z,58.30
2018-03-19T15:40:01.866Z,58.30
2018-03-19T15:42:30.293Z,57.50
2018-03-19T15:44:59.450Z,57.70
2018-03-19T15:47:27.840Z,57.70
2018-03-19T15:49:56.326Z,57.90
2018-03-19T15:52:25.046Z,58.60
2018-03-19T15:54:54.190Z,58.70
2018-03-19T15:57:22.590Z,58.70
2018-03-19T15:59:50.968Z,57.60
2018-03-19T16:02:19.351Z,57.90
2018-03-19T16:04:47.757Z,58.30
2018-03-19T16:07:16.902Z,58.00
2018-03-19T16:09:45.284Z,58.00
2018-03-19T16:12:14.091Z,57.80
2018-03-19T16:14:42.516Z,57.90
2018-03-19T16:17:10.882Z,57.30
2018-03-19T16:19:40.067Z,57.60
2018-03-19T16:22:09.218Z,57.10
2018-03-19T16:24:37.641Z,57.10
2018-03-19T16:27:06.058Z,57.00
2018-03-19T16:29:34.435Z,58.00
2018-03-19T16:32:02.807Z,57.80
2018-03-19T16:34:31.232Z,58.30
2018-03-19T16:36:59.625Z,59.20
2018-03-19T16:39:28.019Z,59.90
2018-03-19T16:41:57.199Z,60.60
2018-03-19T16:44:25.578Z,60.60
2018-03-19T16:46:53.968Z,60.50
2018-03-19T16:49:23.148Z,60.60
2018-03-19T16:51:51.544Z,60.60
2018-03-19T16:54:20.706Z,62.30
2018-03-19T16:56:49.502Z,62.20
2018-03-19T16:59:17.902Z,62.20
2018-03-19T17:01:47.142Z,62.70
2018-03-19T17:04:15.876Z,62.70
2018-03-19T17:06:45.352Z,63.40
2018-03-19T17:09:14.092Z,63.40
2018-03-19T17:11:42.639Z,63.60
2018-03-19T17:14:11.023Z,64.20
2018-03-19T17:16:40.190Z,65.70
2018-03-19T17:19:08.619Z,65.10
2018-03-19T17:21:37.767Z,66.10
2018-03-19T17:24:06.141Z,65.30
2018-03-19T17:26:34.552Z,65.50
2018-03-19T17:29:03.243Z,65.60
2018-03-19T17:31:31.634Z,66.20
2018-03-19T17:34:00.824Z,64.90
2018-03-19T17:36:29.198Z,64.80
2018-03-19T17:38:57.574Z,65.10
2018-03-19T17:41:26.150Z,65.00
2018-03-19T17:43:54.542Z,65.20
2018-03-19T17:46:22.943Z,65.30
2018-03-19T17:48:52.382Z,65.40
2018-03-19T17:51:20.806Z,65.30
2018-03-19T17:53:49.721Z,65.20
2018-03-19T17:56:18.146Z,65.30
2018-03-19T17:58:46.529Z,65.10
2018-03-19T18:01:14.942Z,65.30
2018-03-19T18:03:44.121Z,65.60
2018-03-19T18:06:12.511Z,65.50
2018-03-19T18:08:41.062Z,64.60
2018-03-19T18:11:09.470Z,64.10
2018-03-19T18:13:37.850Z,64.50
2018-03-19T18:16:06.344Z,64.80
2018-03-19T18:18:35.567Z,64.80
2018-03-19T18:21:04.766Z,64.80
2018-03-19T18:23:33.155Z,64.80
2018-03-19T18:26:01.608Z,64.60
2018-03-19T18:28:30.777Z,65.00
2018-03-19T18:31:00.019Z,65.10
2018-03-19T18:33:28.435Z,65.10
2018-03-19T18:35:56.864Z,65.00
2018-03-19T18:38:26.103Z,66.90
2018-03-19T18:40:55.391Z,66.90
2018-03-19T18:43:23.790Z,66.40
2018-03-19T18:45:52.194Z,67.60
2018-03-19T18:48:20.626Z,66.70
2018-03-19T18:50:49.008Z,66.30
2018-03-19T18:53:17.404Z,64.80
2018-03-19T18:55:45.827Z,63.90
2018-03-19T18:58:15.077Z,64.00
2018-03-19T19:00:43.497Z,63.90
2018-03-19T19:03:13.422Z,64.80
2018-03-19T19:05:42.908Z,64.50
2018-03-19T19:08:11.764Z,64.40
2018-03-19T19:10:40.636Z,64.80
2018-03-19T19:13:09.047Z,64.80
2018-03-19T19:15:37.642Z,64.50
2018-03-19T19:18:06.166Z,64.70
2018-03-19T19:20:34.546Z,64.40
2018-03-19T19:23:02.954Z,64.70
2018-03-19T19:25:31.394Z,64.50
2018-03-19T19:28:02.045Z,64.20
2018-03-19T19:30:30.677Z,64.10
2018-03-19T19:32:59.563Z,64.80
2018-03-19T19:35:27.975Z,64.80
2018-03-19T19:37:56.421Z,65.30
2018-03-19T19:40:24.956Z,65.30
2018-03-19T19:42:53.669Z,65.30
2018-03-19T19:45:22.101Z,65.60
2018-03-19T19:47:51.277Z,66.00
2018-03-19T19:50:19.670Z,66.00
2018-03-19T19:52:49.047Z,66.30
2018-03-19T19:55:17.474Z,66.20
2018-03-19T19:57:45.854Z,66.40
2018-03-19T20:00:14.233Z,66.60
2018-03-19T20:02:42.690Z,66.60
2018-03-19T20:05:11.857Z,65.80
2018-03-19T20:07:40.955Z,65.70
2018-03-19T20:10:09.910Z,65.80
2018-03-19T20:12:38.330Z,66.00
2018-03-19T20:15:07.199Z,65.80
2018-03-19T20:17:36.282Z,65.90
2018-03-19T20:20:04.721Z,66.10
2018-03-19T20:22:34.277Z,66.90
2018-03-19T20:25:02.959Z,66.90
2018-03-19T20:27:32.110Z,65.70
2018-03-19T20:30:02.894Z,65.60
2018-03-19T20:32:31.922Z,65.50
2018-03-19T20:35:00.740Z,65.80
2018-03-19T20:37:29.522Z,65.60
2018-03-19T20:39:59.240Z,65.40
2018-03-19T20:42:28.063Z,66.00
2018-03-19T20:44:57.135Z,65.60
2018-03-19T20:47:25.598Z,65.70
2018-03-19T20:49:55.146Z,66.20
2018-03-19T20:52:23.695Z,66.20
2018-03-19T20:54:52.733Z,66.20
2018-03-19T20:57:22.329Z,66.20
2018-03-19T20:59:50.985Z,66.30
2018-03-19T21:02:19.675Z,66.00
2018-03-19T21:04:48.780Z,66.10
2018-03-19T21:07:17.688Z,66.00
2018-03-19T21:09:47.088Z,65.90
2018-03-19T21:12:16.897Z,66.00
2018-03-19T21:14:47.017Z,66.30
2018-03-19T21:17:16.089Z,66.30
2018-03-19T21:19:44.521Z,66.60
2018-03-19T21:22:13.512Z,67.00
2018-03-19T21:24:42.243Z,67.10
2018-03-19T21:27:11.151Z,66.90
2018-03-19T21:29:39.951Z,67.40
2018-03-19T21:32:09.640Z,67.10
2018-03-19T21:34:38.595Z,67.20
2018-03-19T21:37:08.574Z,66.80
2018-03-19T21:39:38.560Z,66.30
2018-03-19T21:42:07.851Z,66.30
2018-03-19T21:44:36.598Z,66.00
2018-03-19T21:47:06.015Z,66.70
2018-03-19T21:49:35.325Z,66.70
2018-03-19T21:52:04.265Z,66.40
2018-03-19T21:54:33.864Z,66.40
2018-03-19T21:57:02.468Z,66.60
2018-03-19T21:59:31.206Z,66.90
2018-03-19T22:01:59.927Z,67.10
2018-03-19T22:04:28.488Z,66.70
2018-03-19T22:06:56.871Z,66.80
2018-03-19T22:09:25.514Z,67.10
2018-03-19T22:11:54.050Z,66.60
2018-03-19T22:14:22.512Z,66.20
2018-03-19T22:16:50.935Z,66.90
2018-03-19T22:19:19.347Z,67.00
2018-03-19T22:21:48.489Z,67.10
2018-03-19T22:24:16.894Z,67.00
2018-03-19T22:26:45.278Z,66.30
2018-03-19T22:29:13.661Z,66.70
2018-03-19T22:31:42.211Z,66.80
2018-03-19T22:34:10.697Z,66.60
2018-03-19T22:36:39.077Z,66.80
2018-03-19T22:39:07.498Z,67.20
2018-03-19T22:41:36.642Z,66.90
2018-03-19T22:44:05.027Z,66.90
2018-03-19T22:46:33.554Z,67.30
2018-03-19T22:49:02.707Z,67.10
2018-03-19T22:51:31.084Z,67.10
2018-03-19T22:53:59.514Z,67.30
2018-03-19T22:56:28.709Z,66.80
2018-03-19T22:58:57.851Z,67.20
2018-03-19T23:01:26.285Z,67.10
2018-03-19T23:03:55.428Z,67.00
2018-03-19T23:06:23.813Z,67.00
2018-03-19T23:08:52.238Z,66.70
2018-03-19T23:11:21.374Z,66.00
2018-03-19T23:13:49.751Z,65.90
2018-03-19T23:16:18.170Z,66.40
2018-03-19T23:21:21.070Z,66.50
2018-03-19T23:23:49.450Z,66.40
2018-03-19T23:26:17.830Z,66.20
2018-03-19T23:28:46.243Z,66.10
2018-03-19T23:31:14.618Z,65.90
2018-03-19T23:33:43.001Z,66.30
2018-03-19T23:36:11.429Z,66.20
2018-03-19T23:38:39.809Z,66.60
2018-03-19T23:41:08.186Z,66.30
2018-03-19T23:43:36.610Z,66.20
2018-03-19T23:46:05.759Z,66.30
2018-03-19T23:48:34.151Z,66.30
2018-03-19T23:51:03.339Z,66.40
2018-03-19T23:53:31.726Z,66.40
2018-03-19T23:56:00.134Z,66.20
2018-03-19T23:58:29.330Z,66.70
